createdAt,value
2018-09-17T00:01:03.392Z,4.33
2018-09-17T00:03:31.553Z,4.70
2018-09-17T00:05:59.724Z,5.77
2018-09-17T00:08:28.269Z,4.73
2018-09-17T00:10:56.448Z,4.80
2018-09-17T00:13:24.669Z,4.57
2018-09-17T00:15:53.018Z,4.47
2018-09-17T00:18:21.180Z,4.40
2018-09-17T00:20:49.365Z,4.73
2018-09-17T00:23:17.544Z,5.47
2018-09-17T00:25:45.709Z,6.50
2018-09-17T00:28:13.873Z,5.20
2018-09-17T00:30:42.040Z,4.80
2018-09-17T00:33:10.249Z,5.27
2018-09-17T00:35:38.752Z,5.67
2018-09-17T00:38:06.945Z,5.13
2018-09-17T00:40:35.127Z,5.23
2018-09-17T00:43:03.317Z,5.77
2018-09-17T00:45:31.532Z,5.57
2018-09-17T00:47:59.684Z,4.67
2018-09-17T00:50:27.956Z,5.77
2018-09-17T00:52:56.124Z,4.77
2018-09-17T00:55:24.269Z,4.37
2018-09-17T00:57:52.504Z,5.13
2018-09-17T01:00:20.572Z,5.10
2018-09-17T01:02:48.718Z,6.53
2018-09-17T01:05:16.885Z,4.73
2018-09-17T01:07:45.047Z,4.70
2018-09-17T01:10:13.326Z,4.80
2018-09-17T01:12:41.479Z,4.70
2018-09-17T01:15:09.661Z,4.83
2018-09-17T01:17:37.810Z,5.55
2018-09-17T01:20:05.955Z,4.37
2018-09-17T01:22:34.120Z,5.07
2018-09-17T01:25:02.267Z,4.63
2018-09-17T01:27:30.452Z,5.83
2018-09-17T01:29:58.608Z,5.20
2018-09-17T01:32:26.771Z,5.50
2018-09-17T01:34:54.916Z,5.80
2018-09-17T01:37:23.081Z,5.50
2018-09-17T01:39:51.234Z,5.30
2018-09-17T01:42:19.396Z,5.80
2018-09-17T01:44:47.564Z,4.53
2018-09-17T01:47:15.726Z,5.50
2018-09-17T01:52:18.547Z,5.43
2018-09-17T01:54:46.761Z,5.53
2018-09-17T01:57:14.920Z,4.93
2018-09-17T01:59:43.096Z,6.50
2018-09-17T02:02:11.305Z,6.93
2018-09-17T02:04:39.677Z,5.37
2018-09-17T02:07:08.281Z,5.67
2018-09-17T02:09:39.908Z,5.93
2018-09-17T02:12:09.665Z,5.60
2018-09-17T02:14:37.948Z,5.70
2018-09-17T02:17:06.355Z,5.43
2018-09-17T02:19:41.105Z,5.77
2018-09-17T02:22:09.756Z,6.07
2018-09-17T02:24:37.950Z,6.10
2018-09-17T02:27:06.816Z,4.67
2018-09-17T02:29:34.960Z,5.83
2018-09-17T02:32:06.588Z,5.57
2018-09-17T02:34:34.978Z,6.37
2018-09-17T02:37:03.176Z,6.40
2018-09-17T02:39:31.763Z,5.53
2018-09-17T02:42:00.641Z,5.93
2018-09-17T02:44:28.828Z,5.30
2018-09-17T02:46:57.021Z,15.43
2018-09-17T02:49:25.206Z,6.20
2018-09-17T02:51:53.366Z,5.97
2018-09-17T02:54:21.547Z,5.77
2018-09-17T02:56:49.735Z,6.07
2018-09-17T02:59:17.900Z,6.50
2018-09-17T03:01:46.041Z,6.23
2018-09-17T03:04:14.229Z,6.77
2018-09-17T03:06:42.400Z,7.10
2018-09-17T03:09:10.617Z,7.00
2018-09-17T03:11:38.765Z,7.20
2018-09-17T03:14:06.957Z,7.50
2018-09-17T03:16:40.966Z,6.57
2018-09-17T03:19:09.133Z,6.77
2018-09-17T03:21:37.281Z,6.83
2018-09-17T03:24:05.406Z,6.10
2018-09-17T03:26:33.866Z,6.33
2018-09-17T03:29:02.021Z,6.50
2018-09-17T03:31:30.176Z,6.90
2018-09-17T03:33:58.353Z,7.10
2018-09-17T03:36:26.499Z,6.17
2018-09-17T03:38:54.668Z,7.70
2018-09-17T03:41:22.863Z,6.47
2018-09-17T03:43:52.060Z,7.10
2018-09-17T03:46:20.210Z,6.77
2018-09-17T03:48:48.355Z,8.10
2018-09-17T03:51:16.901Z,7.27
2018-09-17T03:53:45.053Z,7.12
2018-09-17T03:56:13.252Z,5.67
2018-09-17T03:58:41.435Z,6.93
2018-09-17T04:01:09.590Z,7.13
2018-09-17T04:03:37.773Z,5.47
2018-09-17T04:06:05.956Z,6.70
2018-09-17T04:08:34.111Z,5.80
2018-09-17T04:11:02.316Z,7.10
2018-09-17T04:13:30.512Z,6.20
2018-09-17T04:15:58.679Z,6.70
2018-09-17T04:18:26.828Z,7.20
2018-09-17T04:20:55.065Z,6.37
2018-09-17T04:23:32.224Z,7.60
2018-09-17T04:26:00.452Z,7.73
2018-09-17T04:28:28.636Z,8.23
2018-09-17T04:30:57.055Z,6.73
2018-09-17T04:33:25.666Z,6.10
2018-09-17T04:35:53.796Z,7.10
2018-09-17T04:38:21.936Z,7.60
2018-09-17T04:40:50.112Z,6.33
2018-09-17T04:43:18.277Z,8.90
2018-09-17T04:45:46.540Z,7.30
2018-09-17T04:48:14.908Z,8.20
2018-09-17T04:50:43.145Z,6.17
2018-09-17T04:53:11.335Z,6.43
2018-09-17T04:55:39.539Z,7.67
2018-09-17T04:58:07.739Z,8.70
2018-09-17T05:00:35.924Z,7.70
2018-09-17T05:03:04.346Z,8.73
2018-09-17T05:05:32.492Z,9.10
2018-09-17T05:08:01.186Z,7.53
2018-09-17T05:10:29.372Z,8.40
2018-09-17T05:12:57.564Z,8.20
2018-09-17T05:15:25.700Z,7.20
2018-09-17T05:17:54.033Z,8.07
2018-09-17T05:20:22.245Z,8.20
2018-09-17T05:22:50.524Z,6.83
2018-09-17T05:25:18.874Z,7.77
2018-09-17T05:27:47.046Z,9.07
2018-09-17T05:30:15.212Z,8.30
2018-09-17T05:32:43.546Z,10.17
2018-09-17T05:35:11.781Z,8.57
2018-09-17T05:37:39.868Z,8.43
2018-09-17T05:40:08.116Z,8.20
2018-09-17T05:42:36.264Z,8.43
2018-09-17T05:45:04.609Z,9.20
2018-09-17T05:47:32.837Z,7.80
2018-09-17T05:50:00.993Z,7.30
2018-09-17T05:52:29.213Z,8.20
2018-09-17T05:54:57.379Z,7.93
2018-09-17T05:57:25.929Z,8.30
2018-09-17T05:59:54.133Z,7.60
2018-09-17T06:02:22.325Z,9.50
2018-09-17T06:04:50.530Z,8.67
2018-09-17T06:07:18.711Z,8.53
2018-09-17T06:09:46.917Z,8.83
2018-09-17T06:12:15.233Z,8.20
2018-09-17T06:14:43.502Z,8.37
2018-09-17T06:17:11.703Z,9.40
2018-09-17T06:19:39.868Z,8.73
2018-09-17T06:22:08.017Z,7.83
2018-09-17T06:24:36.213Z,9.50
2018-09-17T06:27:04.414Z,10.17
2018-09-17T06:29:32.600Z,9.57
2018-09-17T06:32:00.784Z,8.20
2018-09-17T06:34:28.981Z,9.10
2018-09-17T06:39:25.873Z,8.37
2018-09-17T06:41:54.030Z,8.97
2018-09-17T06:44:22.212Z,10.50
2018-09-17T06:46:50.737Z,8.23
2018-09-17T06:49:18.924Z,7.97
2018-09-17T06:51:47.228Z,8.40
2018-09-17T06:54:15.392Z,9.90
2018-09-17T06:56:43.549Z,7.63
2018-09-17T06:59:11.720Z,8.37
2018-09-17T07:01:39.908Z,10.70
2018-09-17T07:04:08.104Z,9.30
2018-09-17T07:06:36.281Z,9.53
2018-09-17T07:09:07.877Z,12.60
2018-09-17T07:11:36.074Z,9.50
2018-09-17T07:14:04.236Z,10.37
2018-09-17T07:16:32.376Z,9.93
2018-09-17T07:19:00.549Z,12.00
2018-09-17T07:21:28.720Z,9.73
2018-09-17T07:23:56.876Z,9.33
2018-09-17T07:26:25.050Z,9.10
2018-09-17T07:28:53.234Z,9.40
2018-09-17T07:31:21.391Z,9.50
2018-09-17T07:33:49.569Z,10.00
2018-09-17T07:36:17.768Z,9.83
2018-09-17T07:38:45.940Z,9.53
2018-09-17T07:41:14.104Z,10.10
2018-09-17T07:43:42.289Z,9.13
2018-09-17T07:46:10.489Z,9.70
2018-09-17T07:48:38.661Z,8.70
2018-09-17T07:51:06.801Z,9.30
2018-09-17T07:53:34.959Z,8.57
2018-09-17T07:56:03.180Z,8.20
2018-09-17T07:58:31.365Z,7.87
2018-09-17T08:00:59.572Z,8.33
2018-09-17T08:03:28.034Z,8.90
2018-09-17T08:05:56.274Z,9.87
2018-09-17T08:08:24.578Z,7.87
2018-09-17T08:10:52.719Z,8.47
2018-09-17T08:13:20.876Z,7.60
2018-09-17T08:18:23.682Z,7.40
2018-09-17T08:20:51.853Z,9.23
2018-09-17T08:23:20.020Z,7.80
2018-09-17T08:25:48.193Z,6.93
2018-09-17T08:28:16.333Z,6.43
2018-09-17T08:30:44.461Z,5.70
2018-09-17T08:33:12.695Z,6.70
2018-09-17T08:35:40.819Z,6.73
2018-09-17T08:38:08.971Z,6.90
2018-09-17T08:40:37.279Z,6.50
2018-09-17T08:43:05.744Z,8.10
2018-09-17T08:45:33.919Z,9.03
2018-09-17T08:48:03.339Z,6.93
2018-09-17T08:50:31.626Z,6.87
2018-09-17T08:52:59.971Z,6.30
2018-09-17T08:55:44.963Z,8.87
2018-09-17T08:58:18.523Z,6.50
2018-09-17T09:00:53.098Z,6.13
2018-09-17T09:03:29.545Z,5.63
2018-09-17T09:06:03.488Z,4.60
2018-09-17T09:08:31.644Z,5.90
2018-09-17T09:11:06.574Z,4.43
2018-09-17T09:13:38.946Z,4.47
2018-09-17T09:16:08.821Z,5.33
2018-09-17T09:18:37.011Z,5.57
2018-09-17T09:21:05.313Z,5.23
2018-09-17T09:23:33.937Z,4.53
2018-09-17T09:26:02.072Z,5.17
2018-09-17T09:28:30.621Z,4.90
2018-09-17T09:30:58.929Z,4.80
2018-09-17T09:33:27.076Z,5.30
2018-09-17T09:35:55.251Z,6.23
2018-09-17T09:38:23.441Z,5.13
2018-09-17T09:40:51.707Z,4.87
2018-09-17T09:43:20.098Z,3.87
2018-09-17T09:45:48.338Z,3.43
2018-09-17T09:48:16.483Z,4.37
2018-09-17T09:50:44.725Z,4.83
2018-09-17T09:53:12.924Z,4.37
2018-09-17T09:55:41.090Z,4.00
2018-09-17T09:58:09.246Z,4.93
2018-09-17T10:00:42.676Z,4.23
2018-09-17T10:03:16.201Z,4.10
2018-09-17T10:05:45.545Z,4.00
2018-09-17T10:08:13.674Z,4.07
2018-09-17T10:10:47.913Z,4.67
2018-09-17T10:13:21.427Z,3.80
2018-09-17T10:15:54.138Z,4.07
2018-09-17T10:18:27.824Z,4.90
2018-09-17T10:20:56.048Z,4.73
2018-09-17T10:23:24.214Z,3.10
2018-09-17T10:25:52.467Z,4.17
2018-09-17T10:28:21.693Z,4.10
2018-09-17T10:30:49.889Z,3.53
2018-09-17T10:33:18.199Z,4.03
2018-09-17T10:35:46.376Z,3.10
2018-09-17T10:38:14.540Z,3.57
2018-09-17T10:40:42.688Z,3.23
2018-09-17T10:43:10.876Z,3.33
2018-09-17T10:45:39.013Z,2.80
2018-09-17T10:48:07.211Z,2.30
2018-09-17T10:50:35.618Z,2.93
2018-09-17T10:53:03.756Z,2.40
2018-09-17T10:55:32.414Z,3.03
2018-09-17T10:58:00.653Z,2.30
2018-09-17T11:00:28.828Z,2.30
2018-09-17T11:02:57.097Z,3.03
2018-09-17T11:05:25.261Z,3.83
2018-09-17T11:07:53.424Z,4.70
2018-09-17T11:10:21.634Z,2.57
2018-09-17T11:12:50.365Z,3.03
2018-09-17T11:15:18.497Z,3.23
2018-09-17T11:17:46.772Z,3.70
2018-09-17T11:20:15.301Z,2.70
2018-09-17T11:22:43.470Z,2.50
2018-09-17T11:25:11.797Z,2.30
2018-09-17T11:27:39.954Z,3.57
2018-09-17T11:30:08.137Z,2.50
2018-09-17T11:32:36.369Z,3.27
2018-09-17T11:35:04.524Z,3.00
2018-09-17T11:37:32.762Z,2.97
2018-09-17T11:40:00.975Z,4.07
2018-09-17T11:42:29.145Z,2.80
2018-09-17T11:44:57.414Z,2.80
2018-09-17T11:47:25.593Z,3.07
2018-09-17T11:49:53.752Z,2.80
2018-09-17T11:52:21.952Z,2.40
2018-09-17T11:54:50.128Z,3.00
2018-09-17T11:57:18.277Z,3.70
2018-09-17T11:59:46.522Z,2.73
2018-09-17T12:02:20.105Z,3.33
2018-09-17T12:04:53.683Z,2.60
2018-09-17T12:07:27.281Z,2.73
2018-09-17T12:09:55.474Z,2.70
2018-09-17T12:12:23.620Z,2.73
2018-09-17T12:14:51.833Z,2.90
2018-09-17T12:17:20.038Z,3.67
2018-09-17T12:19:48.222Z,2.90
2018-09-17T12:22:16.485Z,3.60
2018-09-17T12:24:44.651Z,2.63
2018-09-17T12:27:12.792Z,2.70
2018-09-17T12:29:41.000Z,3.07
2018-09-17T12:32:09.138Z,3.13
2018-09-17T12:34:37.298Z,3.00
2018-09-17T12:37:05.576Z,3.13
2018-09-17T12:39:33.717Z,2.50
2018-09-17T12:42:01.877Z,2.20
2018-09-17T12:44:30.037Z,2.37
2018-09-17T12:46:58.226Z,2.57
2018-09-17T12:49:26.457Z,2.40
2018-09-17T12:51:54.606Z,2.43
2018-09-17T12:54:23.052Z,2.43
2018-09-17T12:56:51.180Z,2.57
2018-09-17T12:59:19.334Z,2.30
2018-09-17T13:01:47.744Z,2.13
2018-09-17T13:04:15.883Z,2.40
2018-09-17T13:06:44.083Z,2.07
2018-09-17T13:09:12.628Z,3.03
2018-09-17T13:11:41.301Z,3.00
2018-09-17T13:14:09.473Z,2.67
2018-09-17T13:16:39.517Z,2.60
2018-09-17T13:19:08.684Z,3.03
2018-09-17T13:21:36.908Z,3.40
2018-09-17T13:24:05.460Z,3.10
2018-09-17T13:26:33.646Z,4.30
2018-09-17T13:29:01.900Z,2.50
2018-09-17T13:31:30.119Z,2.80
2018-09-17T13:33:58.256Z,4.33
2018-09-17T13:36:26.416Z,3.40
2018-09-17T13:38:54.652Z,3.10
2018-09-17T13:41:22.788Z,3.50
2018-09-17T13:43:50.978Z,2.07
2018-09-17T13:46:19.136Z,2.73
2018-09-17T13:48:47.477Z,2.43
2018-09-17T13:51:15.682Z,3.40
2018-09-17T13:53:43.833Z,2.90
2018-09-17T13:56:12.020Z,2.40
2018-09-17T13:58:40.452Z,2.30
2018-09-17T14:01:08.568Z,2.50
2018-09-17T14:03:36.761Z,3.20
2018-09-17T14:06:04.950Z,3.30
2018-09-17T14:08:33.103Z,2.50
2018-09-17T14:11:01.294Z,2.80
2018-09-17T14:13:29.561Z,3.47
2018-09-17T14:16:03.462Z,3.80
2018-09-17T14:18:32.372Z,2.73
2018-09-17T14:21:00.683Z,2.00
2018-09-17T14:23:28.861Z,3.20
2018-09-17T14:25:57.093Z,3.10
2018-09-17T14:28:25.212Z,3.23
2018-09-17T14:30:53.376Z,3.00
2018-09-17T14:33:26.851Z,2.37
2018-09-17T14:35:55.006Z,3.03
2018-09-17T14:38:23.508Z,2.40
2018-09-17T14:40:51.658Z,2.60
2018-09-17T14:43:19.779Z,2.33
2018-09-17T14:45:47.966Z,2.73
2018-09-17T14:48:16.152Z,2.10
2018-09-17T14:50:45.421Z,3.00
2018-09-17T14:53:13.536Z,2.17
2018-09-17T14:55:45.680Z,3.40
2018-09-17T14:58:15.589Z,2.43
2018-09-17T15:00:44.785Z,3.80
2018-09-17T15:03:13.509Z,2.50
2018-09-17T15:05:43.562Z,2.73
2018-09-17T15:08:11.964Z,3.98
2018-09-17T15:10:39.994Z,3.17
2018-09-17T15:13:08.242Z,5.40
2018-09-17T15:15:41.843Z,4.22
2018-09-17T15:18:10.609Z,4.05
2018-09-17T15:20:38.754Z,2.83
2018-09-17T15:23:06.892Z,2.10
2018-09-17T15:25:35.100Z,3.40
2018-09-17T15:28:03.542Z,3.40
2018-09-17T15:30:34.004Z,2.30
2018-09-17T15:33:02.162Z,3.00
2018-09-17T15:35:30.401Z,2.90
2018-09-17T15:37:58.567Z,3.27
2018-09-17T15:40:26.804Z,3.20
2018-09-17T15:42:55.009Z,3.30
2018-09-17T15:45:25.046Z,3.30
2018-09-17T15:47:53.192Z,3.60
2018-09-17T15:50:21.622Z,4.37
2018-09-17T15:52:49.716Z,3.80
2018-09-17T15:55:17.861Z,4.20
2018-09-17T15:57:46.176Z,2.80
2018-09-17T16:00:14.385Z,3.13
2018-09-17T16:02:42.593Z,3.40
2018-09-17T16:05:10.948Z,2.97
2018-09-17T16:07:39.484Z,3.33
2018-09-17T16:10:08.136Z,2.80
2018-09-17T16:12:36.548Z,2.52
2018-09-17T16:15:04.766Z,3.92
2018-09-17T16:17:33.353Z,3.67
2018-09-17T16:20:01.774Z,4.47
2018-09-17T16:22:33.782Z,5.60
2018-09-17T16:25:03.860Z,2.80
2018-09-17T16:27:34.295Z,2.73
2018-09-17T16:30:02.676Z,3.90
2018-09-17T16:32:31.175Z,5.30
2018-09-17T16:34:59.660Z,4.30
2018-09-17T16:37:27.920Z,4.40
2018-09-17T16:39:56.120Z,3.10
2018-09-17T16:42:24.359Z,4.27
2018-09-17T16:44:52.550Z,4.63
2018-09-17T16:47:21.958Z,3.47
2018-09-17T16:49:50.124Z,4.07
2018-09-17T16:52:18.670Z,4.40
2018-09-17T16:54:47.334Z,4.00
2018-09-17T16:57:16.601Z,4.83
2018-09-17T16:59:44.812Z,4.00
2018-09-17T17:02:13.073Z,3.93
2018-09-17T17:04:41.450Z,3.40
2018-09-17T17:07:09.568Z,3.77
2018-09-17T17:09:39.604Z,4.87
2018-09-17T17:12:08.060Z,4.10
2018-09-17T17:14:36.244Z,4.60
2018-09-17T17:17:04.392Z,4.57
2018-09-17T17:19:33.802Z,4.93
2018-09-17T17:22:02.026Z,4.13
2018-09-17T17:24:30.212Z,4.80
2018-09-17T17:26:58.422Z,3.93
2018-09-17T17:29:26.644Z,4.30
2018-09-17T17:31:54.876Z,4.50
2018-09-17T17:34:23.939Z,4.50
2018-09-17T17:36:52.669Z,5.10
2018-09-17T17:39:20.905Z,4.97
2018-09-17T17:41:50.086Z,6.27
2018-09-17T17:44:18.245Z,7.57
2018-09-17T17:46:46.748Z,6.60
2018-09-17T17:49:15.033Z,5.80
2018-09-17T17:51:43.240Z,6.57
2018-09-17T17:54:11.540Z,6.00
2018-09-17T17:56:39.890Z,5.77
2018-09-17T17:59:08.135Z,7.30
2018-09-17T18:01:36.319Z,8.07
2018-09-17T18:04:04.539Z,7.63
2018-09-17T18:06:32.740Z,6.73
2018-09-17T18:09:00.895Z,6.07
2018-09-17T18:11:29.144Z,6.03
2018-09-17T18:13:57.314Z,8.80
2018-09-17T18:16:29.528Z,7.27
2018-09-17T18:18:58.736Z,5.63
2018-09-17T18:21:26.962Z,6.33
2018-09-17T18:23:55.116Z,7.87
2018-09-17T18:26:23.337Z,5.67
2018-09-17T18:28:51.539Z,7.47
2018-09-17T18:31:19.688Z,5.57
2018-09-17T18:33:47.905Z,6.03
2018-09-17T18:36:16.292Z,6.30
2018-09-17T18:38:44.522Z,7.37
2018-09-17T18:41:12.685Z,6.67
2018-09-17T18:43:40.823Z,8.55
2018-09-17T18:46:09.028Z,6.50
2018-09-17T18:48:37.392Z,6.97
2018-09-17T18:51:05.519Z,7.00
2018-09-17T18:53:33.681Z,5.60
2018-09-17T18:56:01.871Z,6.37
2018-09-17T18:58:30.017Z,7.10
2018-09-17T19:00:58.240Z,7.43
2018-09-17T19:03:26.436Z,7.10
2018-09-17T19:05:54.626Z,4.40
2018-09-17T19:08:22.801Z,6.67
2018-09-17T19:10:51.084Z,5.87
2018-09-17T19:13:19.226Z,7.60
2018-09-17T19:15:57.553Z,6.37
2018-09-17T19:18:25.775Z,6.57
2018-09-17T19:20:54.154Z,5.43
2018-09-17T19:23:27.490Z,4.63
2018-09-17T19:25:55.912Z,6.00
2018-09-17T19:28:29.431Z,5.70
2018-09-17T19:30:57.586Z,7.00
2018-09-17T19:33:26.020Z,6.17
2018-09-17T19:35:54.295Z,7.93
2018-09-17T19:38:27.956Z,6.20
2018-09-17T19:40:56.157Z,4.63
2018-09-17T19:43:24.315Z,5.60
2018-09-17T19:45:57.840Z,5.23
2018-09-17T19:48:26.025Z,4.47
2018-09-17T19:50:59.563Z,7.00
2018-09-17T19:53:27.719Z,4.10
2018-09-17T19:55:55.970Z,6.17
2018-09-17T19:58:29.549Z,4.77
2018-09-17T20:00:57.871Z,5.33
2018-09-17T20:03:25.848Z,4.70
2018-09-17T20:05:59.512Z,5.53
2018-09-17T20:08:27.701Z,4.53
2018-09-17T20:10:55.917Z,5.07
2018-09-17T20:13:24.109Z,5.20
2018-09-17T20:15:52.440Z,6.10
2018-09-17T20:18:20.569Z,6.00
2018-09-17T20:20:48.873Z,7.37
2018-09-17T20:23:17.175Z,5.83
2018-09-17T20:25:45.318Z,4.83
2018-09-17T20:28:13.512Z,9.60
2018-09-17T20:30:41.672Z,4.77
2018-09-17T20:33:09.939Z,4.83
2018-09-17T20:35:38.116Z,4.83
2018-09-17T20:38:06.451Z,5.33
2018-09-17T20:40:34.613Z,5.23
2018-09-17T20:43:02.825Z,5.23
2018-09-17T20:45:30.990Z,4.70
2018-09-17T20:47:59.184Z,4.50
2018-09-17T20:50:27.377Z,6.00
2018-09-17T20:52:55.584Z,4.83
2018-09-17T20:55:23.880Z,4.97
2018-09-17T20:57:52.154Z,4.87
2018-09-17T21:00:20.358Z,4.33
2018-09-17T21:02:49.065Z,4.97
2018-09-17T21:05:17.344Z,4.50
2018-09-17T21:07:45.488Z,4.90
2018-09-17T21:10:14.324Z,4.73
2018-09-17T21:12:42.589Z,4.80
2018-09-17T21:15:10.643Z,4.83
2018-09-17T21:17:38.852Z,4.30
2018-09-17T21:20:07.425Z,4.53
2018-09-17T21:22:35.564Z,3.57
2018-09-17T21:25:03.758Z,4.23
2018-09-17T21:27:31.910Z,3.40
2018-09-17T21:30:00.146Z,4.87
2018-09-17T21:32:28.276Z,4.90
2018-09-17T21:34:56.488Z,7.10
2018-09-17T21:37:24.687Z,4.47
2018-09-17T21:39:52.789Z,4.47
2018-09-17T21:42:20.986Z,3.87
2018-09-17T21:44:49.313Z,4.77
2018-09-17T21:47:17.581Z,3.83
2018-09-17T21:49:45.807Z,4.47
2018-09-17T21:52:14.029Z,4.33
2018-09-17T21:54:43.156Z,4.63
2018-09-17T21:57:12.151Z,5.50
2018-09-17T21:59:40.400Z,5.07
2018-09-17T22:02:08.557Z,4.20
2018-09-17T22:04:36.694Z,4.50
2018-09-17T22:07:04.932Z,5.27
2018-09-17T22:09:34.009Z,5.77
2018-09-17T22:12:02.237Z,4.10
2018-09-17T22:14:30.458Z,5.17
2018-09-17T22:16:58.736Z,5.13
2018-09-17T22:19:26.921Z,4.30
2018-09-17T22:21:55.137Z,4.23
2018-09-17T22:24:23.313Z,4.10
2018-09-17T22:26:51.494Z,4.23
2018-09-17T22:29:19.681Z,4.23
2018-09-17T22:31:47.983Z,5.20
2018-09-17T22:34:16.272Z,4.53
2018-09-17T22:36:44.521Z,4.40
2018-09-17T22:39:12.815Z,4.20
2018-09-17T22:41:41.000Z,3.73
2018-09-17T22:44:09.180Z,4.10
2018-09-17T22:46:38.349Z,4.00
2018-09-17T22:49:06.790Z,4.90
2018-09-17T22:51:34.963Z,3.93
2018-09-17T22:54:03.140Z,4.03
2018-09-17T22:56:31.300Z,4.10
2018-09-17T22:58:59.619Z,4.97
2018-09-17T23:01:27.852Z,4.37
2018-09-17T23:03:55.993Z,4.60
2018-09-17T23:06:24.144Z,4.00
2018-09-17T23:08:52.330Z,5.13
2018-09-17T23:11:20.537Z,4.20
2018-09-17T23:13:48.668Z,3.70
2018-09-17T23:16:16.840Z,4.00
2018-09-17T23:18:45.044Z,4.50
2018-09-17T23:21:13.241Z,4.50
2018-09-17T23:23:41.416Z,4.97
2018-09-17T23:26:09.567Z,4.60
2018-09-17T23:28:37.804Z,4.70
2018-09-17T23:31:06.219Z,4.90
2018-09-17T23:33:34.356Z,3.87
2018-09-17T23:36:02.586Z,4.53
2018-09-17T23:38:30.766Z,4.80
2018-09-17T23:40:59.277Z,4.80
2018-09-17T23:43:27.483Z,4.20
2018-09-17T23:45:55.648Z,4.40
2018-09-17T23:48:23.800Z,4.47
2018-09-17T23:50:52.012Z,4.07
2018-09-17T23:53:20.177Z,4.33
2018-09-17T23:55:48.312Z,4.20
2018-09-17T23:58:16.589Z,5.20
